sensor_id;sensor_type;location;lat;lon;timestamp;pressure;altitude;pressure_sealevel;temperature;humidity
69239;BME280;56349;51.816;-0.026;2022-10-26T00:01:44;100179.45;;;22.35;41.66
69239;BME280;56349;51.816;-0.026;2022-10-26T00:04:09;100182.42;;;22.37;41.65
69239;BME280;56349;51.816;-0.026;2022-10-26T00:06:40;100181.39;;;22.36;41.66
69239;BME280;56349;51.816;-0.026;2022-10-26T00:09:01;100175.43;;;22.34;41.69
69239;BME280;56349;51.816;-0.026;2022-10-26T00:11:26;100172.64;;;22.10;41.72
69239;BME280;56349;51.816;-0.026;2022-10-26T00:13:51;100173.70;;;22.30;41.75
69239;BME280;56349;51.816;-0.026;2022-10-26T00:16:19;100171.71;;;22.51;41.77
69239;BME280;56349;51.816;-0.026;2022-10-26T00:18:47;100174.84;;;21.78;41.79
69239;BME280;56349;51.816;-0.026;2022-10-26T00:21:13;100171.17;;;22.04;41.81
69239;BME280;56349;51.816;-0.026;2022-10-26T00:23:34;100166.87;;;22.24;41.83
69239;BME280;56349;51.816;-0.026;2022-10-26T00:26:05;100161.92;;;22.21;41.86
69239;BME280;56349;51.816;-0.026;2022-10-26T00:28:24;100161.73;;;22.19;41.90
69239;BME280;56349;51.816;-0.026;2022-10-26T00:30:50;100163.07;;;22.18;41.92
69239;BME280;56349;51.816;-0.026;2022-10-26T00:33:16;100158.09;;;22.17;41.93
69239;BME280;56349;51.816;-0.026;2022-10-26T00:35:41;100152.21;;;22.15;41.95
69239;BME280;56349;51.816;-0.026;2022-10-26T00:38:12;100150.34;;;21.92;41.97
69239;BME280;56349;51.816;-0.026;2022-10-26T00:40:33;100150.88;;;21.91;41.98
69239;BME280;56349;51.816;-0.026;2022-10-26T00:42:58;100151.92;;;22.12;42.01
69239;BME280;56349;51.816;-0.026;2022-10-26T00:45:25;100156.66;;;22.08;42.05
69239;BME280;56349;51.816;-0.026;2022-10-26T00:47:52;100158.45;;;22.06;42.08
69239;BME280;56349;51.816;-0.026;2022-10-26T00:50:17;100156.63;;;22.03;42.12
69239;BME280;56349;51.816;-0.026;2022-10-26T00:52:40;100155.11;;;22.01;42.16
69239;BME280;56349;51.816;-0.026;2022-10-26T00:55:07;100147.70;;;22.08;42.08
69239;BME280;56349;51.816;-0.026;2022-10-26T00:57:31;100143.54;;;22.16;41.98
69239;BME280;56349;51.816;-0.026;2022-10-26T00:59:57;100136.78;;;21.97;41.91
69239;BME280;56349;51.816;-0.026;2022-10-26T01:02:22;100128.62;;;21.71;41.86
69239;BME280;56349;51.816;-0.026;2022-10-26T01:04:47;100124.66;;;21.91;41.95
69239;BME280;56349;51.816;-0.026;2022-10-26T01:07:13;100119.57;;;22.05;42.05
69239;BME280;56349;51.816;-0.026;2022-10-26T01:09:38;100116.49;;;22.01;42.12
69239;BME280;56349;51.816;-0.026;2022-10-26T01:12:04;100119.74;;;21.96;42.18
69239;BME280;56349;51.816;-0.026;2022-10-26T01:14:30;100120.31;;;21.94;42.22
69239;BME280;56349;51.816;-0.026;2022-10-26T01:17:02;100116.24;;;21.90;42.27
69239;BME280;56349;51.816;-0.026;2022-10-26T01:19:33;100113.69;;;21.87;42.32
69239;BME280;56349;51.816;-0.026;2022-10-26T01:21:50;100108.74;;;22.06;42.37
69239;BME280;56349;51.816;-0.026;2022-10-26T01:24:22;100111.80;;;21.85;42.36
69239;BME280;56349;51.816;-0.026;2022-10-26T01:26:49;100112.11;;;21.86;42.36
69239;BME280;56349;51.816;-0.026;2022-10-26T01:29:18;100110.03;;;21.91;42.30
69239;BME280;56349;51.816;-0.026;2022-10-26T01:31:31;100105.51;;;21.97;42.22
69239;BME280;56349;51.816;-0.026;2022-10-26T01:33:58;100104.85;;;21.79;42.14
69239;BME280;56349;51.816;-0.026;2022-10-26T01:36:26;100105.97;;;22.03;42.11
69239;BME280;56349;51.816;-0.026;2022-10-26T01:38:53;100106.17;;;22.04;42.09
69239;BME280;56349;51.816;-0.026;2022-10-26T01:41:16;100113.04;;;22.07;42.06
69239;BME280;56349;51.816;-0.026;2022-10-26T01:43:40;100111.93;;;22.11;42.00
69239;BME280;56349;51.816;-0.026;2022-10-26T01:46:05;100106.00;;;22.14;41.95
69239;BME280;56349;51.816;-0.026;2022-10-26T01:48:31;100100.01;;;22.15;41.91
69239;BME280;56349;51.816;-0.026;2022-10-26T01:50:56;100097.17;;;22.13;41.92
69239;BME280;56349;51.816;-0.026;2022-10-26T01:53:21;100091.43;;;22.13;41.93
69239;BME280;56349;51.816;-0.026;2022-10-26T01:55:49;100087.05;;;21.90;41.94
69239;BME280;56349;51.816;-0.026;2022-10-26T01:58:28;100084.58;;;22.11;41.94
69239;BME280;56349;51.816;-0.026;2022-10-26T02:00:42;100089.56;;;21.61;41.94
69239;BME280;56349;51.816;-0.026;2022-10-26T02:03:11;100095.80;;;21.89;41.92
69239;BME280;56349;51.816;-0.026;2022-10-26T02:05:43;100101.97;;;22.10;41.93
69239;BME280;56349;51.816;-0.026;2022-10-26T02:08:04;100110.89;;;22.11;41.93
69239;BME280;56349;51.816;-0.026;2022-10-26T02:10:29;100105.39;;;21.88;41.91
69239;BME280;56349;51.816;-0.026;2022-10-26T02:12:53;100100.51;;;22.09;41.92
69239;BME280;56349;51.816;-0.026;2022-10-26T02:15:16;100102.09;;;21.87;41.92
69239;BME280;56349;51.816;-0.026;2022-10-26T02:17:44;100103.22;;;22.08;41.91
69239;BME280;56349;51.816;-0.026;2022-10-26T02:20:05;100102.54;;;21.84;41.93
69239;BME280;56349;51.816;-0.026;2022-10-26T02:22:31;100096.46;;;22.05;41.94
69239;BME280;56349;51.816;-0.026;2022-10-26T02:24:55;100089.26;;;21.82;41.95
69239;BME280;56349;51.816;-0.026;2022-10-26T02:27:25;100086.37;;;22.03;41.96
69239;BME280;56349;51.816;-0.026;2022-10-26T02:29:45;100083.96;;;22.02;41.95
69239;BME280;56349;51.816;-0.026;2022-10-26T02:32:11;100082.61;;;21.79;41.97
69239;BME280;56349;51.816;-0.026;2022-10-26T02:34:37;100082.88;;;21.78;41.97
69239;BME280;56349;51.816;-0.026;2022-10-26T02:37:03;100078.01;;;21.99;41.98
69239;BME280;56349;51.816;-0.026;2022-10-26T02:39:30;100073.22;;;21.76;41.99
69239;BME280;56349;51.816;-0.026;2022-10-26T02:41:53;100066.93;;;21.98;41.98
69239;BME280;56349;51.816;-0.026;2022-10-26T02:44:25;100061.76;;;21.97;41.99
69239;BME280;56349;51.816;-0.026;2022-10-26T02:46:44;100060.36;;;21.96;42.00
69239;BME280;56349;51.816;-0.026;2022-10-26T02:49:11;100059.09;;;21.97;41.99
69239;BME280;56349;51.816;-0.026;2022-10-26T02:51:39;100054.81;;;21.98;41.99
69239;BME280;56349;51.816;-0.026;2022-10-26T02:54:04;100054.21;;;21.97;41.98
69239;BME280;56349;51.816;-0.026;2022-10-26T02:56:36;100060.12;;;21.73;42.01
69239;BME280;56349;51.816;-0.026;2022-10-26T02:59:01;100063.86;;;21.95;42.01
69239;BME280;56349;51.816;-0.026;2022-10-26T03:01:17;100062.01;;;21.92;42.05
69239;BME280;56349;51.816;-0.026;2022-10-26T03:03:42;100047.36;;;21.69;42.03
69239;BME280;56349;51.816;-0.026;2022-10-26T03:06:07;100042.09;;;21.43;42.03
69239;BME280;56349;51.816;-0.026;2022-10-26T03:08:33;100038.80;;;21.92;42.03
69239;BME280;56349;51.816;-0.026;2022-10-26T03:10:58;100046.33;;;21.94;42.00
69239;BME280;56349;51.816;-0.026;2022-10-26T03:13:23;100042.90;;;21.97;41.95
69239;BME280;56349;51.816;-0.026;2022-10-26T03:15:49;100037.60;;;21.96;41.95
69239;BME280;56349;51.816;-0.026;2022-10-26T03:18:14;100039.24;;;21.93;41.97
69239;BME280;56349;51.816;-0.026;2022-10-26T03:20:42;100029.31;;;21.93;41.98
69239;BME280;56349;51.816;-0.026;2022-10-26T03:23:05;100030.45;;;21.70;41.97
69239;BME280;56349;51.816;-0.026;2022-10-26T03:25:30;100033.45;;;21.92;41.98
69239;BME280;56349;51.816;-0.026;2022-10-26T03:27:57;100033.29;;;21.93;41.96
69239;BME280;56349;51.816;-0.026;2022-10-26T03:30:21;100032.90;;;21.70;41.98
69239;BME280;56349;51.816;-0.026;2022-10-26T03:32:46;100034.17;;;21.69;42.03
69239;BME280;56349;51.816;-0.026;2022-10-26T03:35:12;100039.47;;;21.69;42.12
69239;BME280;56349;51.816;-0.026;2022-10-26T03:37:37;100036.06;;;21.96;42.16
69239;BME280;56349;51.816;-0.026;2022-10-26T03:40:03;100030.91;;;21.83;42.14
69239;BME280;56349;51.816;-0.026;2022-10-26T03:42:34;100035.05;;;21.95;42.08
69239;BME280;56349;51.816;-0.026;2022-10-26T03:44:54;100035.58;;;21.83;41.98
69239;BME280;56349;51.816;-0.026;2022-10-26T03:47:19;100033.77;;;22.24;41.81
69239;BME280;56349;51.816;-0.026;2022-10-26T03:49:44;100018.79;;;22.10;41.59
69239;BME280;56349;51.816;-0.026;2022-10-26T03:52:10;100011.40;;;22.16;41.44
69239;BME280;56349;51.816;-0.026;2022-10-26T03:54:40;100010.00;;;22.44;41.35
69239;BME280;56349;51.816;-0.026;2022-10-26T03:57:00;100012.48;;;22.17;41.29
69239;BME280;56349;51.816;-0.026;2022-10-26T03:59:30;100012.37;;;22.15;41.24
69239;BME280;56349;51.816;-0.026;2022-10-26T04:01:51;100020.42;;;22.61;41.20
69239;BME280;56349;51.816;-0.026;2022-10-26T04:04:16;100031.11;;;22.60;41.15
69239;BME280;56349;51.816;-0.026;2022-10-26T04:06:41;100034.23;;;22.08;41.12
69239;BME280;56349;51.816;-0.026;2022-10-26T04:09:07;100032.18;;;22.05;41.11
69239;BME280;56349;51.816;-0.026;2022-10-26T04:11:32;100034.26;;;22.00;41.12
69239;BME280;56349;51.816;-0.026;2022-10-26T04:14:02;100040.60;;;22.44;41.16
69239;BME280;56349;51.816;-0.026;2022-10-26T04:16:23;100044.26;;;22.39;41.19
69239;BME280;56349;51.816;-0.026;2022-10-26T04:18:53;100049.06;;;22.15;41.21
69239;BME280;56349;51.816;-0.026;2022-10-26T04:21:14;100048.23;;;22.36;41.19
69239;BME280;56349;51.816;-0.026;2022-10-26T04:23:39;100054.50;;;22.11;41.19
69239;BME280;56349;51.816;-0.026;2022-10-26T04:26:04;100061.98;;;22.28;41.24
69239;BME280;56349;51.816;-0.026;2022-10-26T04:28:30;100057.45;;;22.00;41.29
69239;BME280;56349;51.816;-0.026;2022-10-26T04:30:56;100064.41;;;22.16;41.35
69239;BME280;56349;51.816;-0.026;2022-10-26T04:33:22;100065.37;;;22.09;41.42
69239;BME280;56349;51.816;-0.026;2022-10-26T04:35:47;100063.14;;;22.04;41.50
69239;BME280;56349;51.816;-0.026;2022-10-26T04:38:12;100068.82;;;21.99;41.54
69239;BME280;56349;51.816;-0.026;2022-10-26T04:40:37;100071.89;;;21.95;41.59
69239;BME280;56349;51.816;-0.026;2022-10-26T04:43:02;100074.80;;;21.91;41.64
69239;BME280;56349;51.816;-0.026;2022-10-26T04:45:28;100072.77;;;21.87;41.70
69239;BME280;56349;51.816;-0.026;2022-10-26T04:47:59;100071.91;;;21.82;41.75
69239;BME280;56349;51.816;-0.026;2022-10-26T04:50:19;100077.39;;;21.78;41.82
69239;BME280;56349;51.816;-0.026;2022-10-26T04:52:49;100070.45;;;22.23;41.85
69239;BME280;56349;51.816;-0.026;2022-10-26T04:55:11;100068.92;;;21.94;41.90
69239;BME280;56349;51.816;-0.026;2022-10-26T04:57:36;100070.46;;;21.70;41.93
69239;BME280;56349;51.816;-0.026;2022-10-26T05:00:04;100072.79;;;21.67;41.97
69239;BME280;56349;51.816;-0.026;2022-10-26T05:02:27;100074.58;;;21.89;41.98
69239;BME280;56349;51.816;-0.026;2022-10-26T05:04:52;100071.76;;;21.86;42.00
69239;BME280;56349;51.816;-0.026;2022-10-26T05:07:17;100076.65;;;21.84;42.04
69239;BME280;56349;51.816;-0.026;2022-10-26T05:09:43;100086.43;;;21.82;42.07
69239;BME280;56349;51.816;-0.026;2022-10-26T05:12:09;100078.42;;;21.58;42.10
69239;BME280;56349;51.816;-0.026;2022-10-26T05:14:35;100083.72;;;21.58;42.10
69239;BME280;56349;51.816;-0.026;2022-10-26T05:17:00;100084.71;;;21.78;42.11
69239;BME280;56349;51.816;-0.026;2022-10-26T05:19:25;100084.85;;;21.76;42.15
69239;BME280;56349;51.816;-0.026;2022-10-26T05:21:51;100085.49;;;21.78;42.12
69239;BME280;56349;51.816;-0.026;2022-10-26T05:24:16;100093.80;;;21.55;42.14
69239;BME280;56349;51.816;-0.026;2022-10-26T05:26:41;100096.34;;;21.54;42.15
69239;BME280;56349;51.816;-0.026;2022-10-26T05:29:07;100099.39;;;21.55;42.15
69239;BME280;56349;51.816;-0.026;2022-10-26T05:31:33;100104.69;;;21.39;42.09
69239;BME280;56349;51.816;-0.026;2022-10-26T05:33:58;100104.99;;;21.88;42.02
69239;BME280;56349;51.816;-0.026;2022-10-26T05:36:23;100107.00;;;21.69;41.97
69239;BME280;56349;51.816;-0.026;2022-10-26T05:38:49;100113.23;;;21.73;41.91
69239;BME280;56349;51.816;-0.026;2022-10-26T05:41:14;100119.65;;;21.75;41.89
69239;BME280;56349;51.816;-0.026;2022-10-26T05:43:39;100125.47;;;21.75;41.87
69239;BME280;56349;51.816;-0.026;2022-10-26T05:46:04;100129.43;;;21.74;41.87
69239;BME280;56349;51.816;-0.026;2022-10-26T05:48:29;100133.72;;;21.51;41.87
69239;BME280;56349;51.816;-0.026;2022-10-26T05:50:58;100132.08;;;21.73;41.87
69239;BME280;56349;51.816;-0.026;2022-10-26T05:53:20;100136.66;;;21.74;41.86
69239;BME280;56349;51.816;-0.026;2022-10-26T05:55:51;100138.78;;;21.72;41.89
69239;BME280;56349;51.816;-0.026;2022-10-26T05:58:13;100139.32;;;21.71;41.89
69239;BME280;56349;51.816;-0.026;2022-10-26T06:00:40;100150.72;;;21.71;41.89
69239;BME280;56349;51.816;-0.026;2022-10-26T06:03:11;100150.86;;;21.76;41.85
69239;BME280;56349;51.816;-0.026;2022-10-26T06:05:29;100161.64;;;21.59;41.77
69239;BME280;56349;51.816;-0.026;2022-10-26T06:07:54;100166.07;;;22.04;41.75
69239;BME280;56349;51.816;-0.026;2022-10-26T06:10:20;100167.45;;;21.82;41.74
69239;BME280;56349;51.816;-0.026;2022-10-26T06:12:46;100167.54;;;21.81;41.75
69239;BME280;56349;51.816;-0.026;2022-10-26T06:15:15;100173.33;;;21.81;41.75
69239;BME280;56349;51.816;-0.026;2022-10-26T06:17:45;100186.70;;;21.60;41.73
69239;BME280;56349;51.816;-0.026;2022-10-26T06:20:12;100186.34;;;21.59;41.74
69239;BME280;56349;51.816;-0.026;2022-10-26T06:22:39;100185.93;;;21.79;41.76
69239;BME280;56349;51.816;-0.026;2022-10-26T06:25:01;100185.59;;;21.80;41.76
69239;BME280;56349;51.816;-0.026;2022-10-26T06:27:27;100187.14;;;21.79;41.77
69239;BME280;56349;51.816;-0.026;2022-10-26T06:29:49;100189.58;;;21.80;41.76
69239;BME280;56349;51.816;-0.026;2022-10-26T06:32:11;100186.02;;;21.81;41.76
69239;BME280;56349;51.816;-0.026;2022-10-26T06:34:38;100192.05;;;21.78;41.77
69239;BME280;56349;51.816;-0.026;2022-10-26T06:37:03;100191.38;;;21.98;41.81
69239;BME280;56349;51.816;-0.026;2022-10-26T06:39:29;100191.62;;;21.52;41.83
69239;BME280;56349;51.816;-0.026;2022-10-26T06:41:53;100188.78;;;21.74;41.83
69239;BME280;56349;51.816;-0.026;2022-10-26T06:44:21;100187.96;;;21.73;41.83
69239;BME280;56349;51.816;-0.026;2022-10-26T06:46:47;100191.76;;;21.71;41.87
69239;BME280;56349;51.816;-0.026;2022-10-26T06:49:16;100185.88;;;21.70;41.90
69239;BME280;56349;51.816;-0.026;2022-10-26T06:51:42;100197.24;;;21.69;41.92
69239;BME280;56349;51.816;-0.026;2022-10-26T06:54:07;100200.51;;;21.70;41.91
69239;BME280;56349;51.816;-0.026;2022-10-26T06:56:27;100203.94;;;21.47;41.91
69239;BME280;56349;51.816;-0.026;2022-10-26T06:58:53;100211.36;;;21.69;41.92
69239;BME280;56349;51.816;-0.026;2022-10-26T07:01:19;100212.99;;;21.71;41.90
69239;BME280;56349;51.816;-0.026;2022-10-26T07:03:44;100226.07;;;21.75;41.85
69239;BME280;56349;51.816;-0.026;2022-10-26T07:06:09;100229.39;;;21.74;41.86
69239;BME280;56349;51.816;-0.026;2022-10-26T07:08:35;100223.03;;;21.52;41.86
69239;BME280;56349;51.816;-0.026;2022-10-26T07:11:00;100226.16;;;21.75;41.85
69239;BME280;56349;51.816;-0.026;2022-10-26T07:13:25;100229.01;;;21.75;41.83
69239;BME280;56349;51.816;-0.026;2022-10-26T07:15:50;100233.63;;;21.74;41.85
69239;BME280;56349;51.816;-0.026;2022-10-26T07:18:16;100231.69;;;21.89;41.93
69239;BME280;56349;51.816;-0.026;2022-10-26T07:20:41;100230.28;;;21.59;42.03
69239;BME280;56349;51.816;-0.026;2022-10-26T07:23:08;100235.15;;;21.57;42.09
69239;BME280;56349;51.816;-0.026;2022-10-26T07:25:33;100241.40;;;21.59;42.08
69239;BME280;56349;51.816;-0.026;2022-10-26T07:27:58;100239.03;;;21.62;42.06
69239;BME280;56349;51.816;-0.026;2022-10-26T07:30:23;100237.30;;;21.66;42.02
69239;BME280;56349;51.816;-0.026;2022-10-26T07:32:48;100233.35;;;21.68;42.10
69239;BME280;56349;51.816;-0.026;2022-10-26T07:35:14;100233.77;;;21.66;42.24
69239;BME280;56349;51.816;-0.026;2022-10-26T07:37:38;100233.27;;;21.66;42.34
69239;BME280;56349;51.816;-0.026;2022-10-26T07:40:05;100229.33;;;21.63;42.47
69239;BME280;56349;51.816;-0.026;2022-10-26T07:42:29;100228.22;;;21.85;42.64
69239;BME280;56349;51.816;-0.026;2022-10-26T07:44:54;100227.53;;;21.84;42.76
69239;BME280;56349;51.816;-0.026;2022-10-26T07:47:20;100228.02;;;21.62;42.87
69239;BME280;56349;51.816;-0.026;2022-10-26T07:49:45;100229.02;;;21.65;42.97
69239;BME280;56349;51.816;-0.026;2022-10-26T07:52:10;100231.49;;;21.73;43.06
69239;BME280;56349;51.816;-0.026;2022-10-26T07:54:35;100227.45;;;21.90;43.06
69239;BME280;56349;51.816;-0.026;2022-10-26T07:57:01;100230.40;;;22.14;42.96
69239;BME280;56349;51.816;-0.026;2022-10-26T07:59:26;100234.72;;;22.16;42.78
69239;BME280;56349;51.816;-0.026;2022-10-26T08:01:51;100235.31;;;22.41;42.51
69239;BME280;56349;51.816;-0.026;2022-10-26T08:04:16;100236.46;;;22.43;42.18
69239;BME280;56349;51.816;-0.026;2022-10-26T08:06:43;100235.62;;;22.70;41.84
69239;BME280;56349;51.816;-0.026;2022-10-26T08:09:08;100238.15;;;23.00;41.50
69239;BME280;56349;51.816;-0.026;2022-10-26T08:11:33;100244.63;;;23.27;41.20
69239;BME280;56349;51.816;-0.026;2022-10-26T08:13:58;100246.82;;;23.05;40.88
69239;BME280;56349;51.816;-0.026;2022-10-26T08:16:23;100247.87;;;23.10;40.54
69239;BME280;56349;51.816;-0.026;2022-10-26T08:18:54;100254.09;;;23.55;40.22
69239;BME280;56349;51.816;-0.026;2022-10-26T08:21:14;100260.20;;;23.57;39.93
69239;BME280;56349;51.816;-0.026;2022-10-26T08:23:40;100256.89;;;23.77;39.65
69239;BME280;56349;51.816;-0.026;2022-10-26T08:26:05;100258.07;;;24.18;39.32
69239;BME280;56349;51.816;-0.026;2022-10-26T08:28:31;100254.46;;;23.88;38.98
69239;BME280;56349;51.816;-0.026;2022-10-26T08:30:56;100262.25;;;24.45;38.66
69239;BME280;56349;51.816;-0.026;2022-10-26T08:33:22;100267.54;;;24.06;38.40
69239;BME280;56349;51.816;-0.026;2022-10-26T08:35:47;100268.19;;;24.06;38.21
69239;BME280;56349;51.816;-0.026;2022-10-26T08:38:12;100276.56;;;24.03;38.10
69239;BME280;56349;51.816;-0.026;2022-10-26T08:40:39;100270.21;;;23.95;38.06
69239;BME280;56349;51.816;-0.026;2022-10-26T08:43:06;100267.67;;;24.30;38.04
69239;BME280;56349;51.816;-0.026;2022-10-26T08:45:30;100268.68;;;24.17;38.06
69239;BME280;56349;51.816;-0.026;2022-10-26T08:47:57;100268.04;;;24.03;38.08
69239;BME280;56349;51.816;-0.026;2022-10-26T08:50:24;100261.45;;;23.85;38.21
69239;BME280;56349;51.816;-0.026;2022-10-26T08:52:48;100271.91;;;23.64;38.38
69239;BME280;56349;51.816;-0.026;2022-10-26T08:55:14;100275.25;;;23.74;38.56
69239;BME280;56349;51.816;-0.026;2022-10-26T08:57:38;100283.78;;;23.60;38.72
69239;BME280;56349;51.816;-0.026;2022-10-26T09:00:05;100287.62;;;23.44;38.89
69239;BME280;56349;51.816;-0.026;2022-10-26T09:02:27;100290.06;;;23.53;39.05
69239;BME280;56349;51.816;-0.026;2022-10-26T09:04:54;100290.98;;;23.40;39.17
69239;BME280;56349;51.816;-0.026;2022-10-26T09:07:31;100290.79;;;23.28;39.36
69239;BME280;56349;51.816;-0.026;2022-10-26T09:09:50;100292.33;;;23.16;39.55
69239;BME280;56349;51.816;-0.026;2022-10-26T09:12:14;100290.70;;;23.09;39.81
69239;BME280;56349;51.816;-0.026;2022-10-26T09:14:41;100291.36;;;23.03;39.94
69239;BME280;56349;51.816;-0.026;2022-10-26T09:17:08;100295.99;;;23.00;40.30
69239;BME280;56349;51.816;-0.026;2022-10-26T09:19:38;100296.59;;;23.02;40.39
69239;BME280;56349;51.816;-0.026;2022-10-26T09:21:56;100294.89;;;23.09;40.54
69239;BME280;56349;51.816;-0.026;2022-10-26T09:24:24;100286.34;;;23.19;40.61
69239;BME280;56349;51.816;-0.026;2022-10-26T09:26:53;100275.70;;;23.31;40.70
69239;BME280;56349;51.816;-0.026;2022-10-26T09:29:12;100272.26;;;23.23;40.72
69239;BME280;56349;51.816;-0.026;2022-10-26T09:31:38;100282.56;;;23.15;40.79
69239;BME280;56349;51.816;-0.026;2022-10-26T09:34:01;100290.03;;;23.38;40.78
69239;BME280;56349;51.816;-0.026;2022-10-26T09:36:25;100288.16;;;23.60;40.57
69239;BME280;56349;51.816;-0.026;2022-10-26T09:38:55;100301.36;;;23.77;40.22
69239;BME280;56349;51.816;-0.026;2022-10-26T09:41:22;100303.72;;;23.91;39.90
69239;BME280;56349;51.816;-0.026;2022-10-26T09:43:47;100304.01;;;23.79;39.61
69239;BME280;56349;51.816;-0.026;2022-10-26T09:46:15;100306.62;;;23.82;39.44
69239;BME280;56349;51.816;-0.026;2022-10-26T09:48:37;100308.24;;;23.59;39.34
69239;BME280;56349;51.816;-0.026;2022-10-26T09:50:59;100320.98;;;24.02;39.26
69239;BME280;56349;51.816;-0.026;2022-10-26T09:53:25;100314.87;;;23.74;39.21
69239;BME280;56349;51.816;-0.026;2022-10-26T09:56:02;100321.05;;;23.86;39.22
69239;BME280;56349;51.816;-0.026;2022-10-26T09:58:20;100327.68;;;23.53;39.28
69239;BME280;56349;51.816;-0.026;2022-10-26T10:00:41;100323.64;;;23.66;39.32
69239;BME280;56349;51.816;-0.026;2022-10-26T10:03:17;100330.74;;;23.55;39.39
69239;BME280;56349;51.816;-0.026;2022-10-26T10:05:33;100337.50;;;23.69;39.50
69239;BME280;56349;51.816;-0.026;2022-10-26T10:10:23;100344.09;;;23.71;39.70
69239;BME280;56349;51.816;-0.026;2022-10-26T10:12:50;100356.74;;;23.62;39.83
69239;BME280;56349;51.816;-0.026;2022-10-26T10:15:18;100355.57;;;23.09;40.00
69239;BME280;56349;51.816;-0.026;2022-10-26T10:17:40;100362.33;;;23.34;40.02
69239;BME280;56349;51.816;-0.026;2022-10-26T10:20:08;100364.66;;;23.52;40.08
69239;BME280;56349;51.816;-0.026;2022-10-26T10:22:31;100367.69;;;23.25;40.12
69239;BME280;56349;51.816;-0.026;2022-10-26T10:24:58;100374.27;;;23.20;40.15
69239;BME280;56349;51.816;-0.026;2022-10-26T10:27:23;100390.13;;;23.14;40.21
69239;BME280;56349;51.816;-0.026;2022-10-26T10:29:50;100394.03;;;23.07;40.29
69239;BME280;56349;51.816;-0.026;2022-10-26T10:32:16;100400.67;;;23.25;40.34
69239;BME280;56349;51.816;-0.026;2022-10-26T10:34:41;100411.61;;;22.99;40.40
69239;BME280;56349;51.816;-0.026;2022-10-26T10:39:37;100416.87;;;22.88;40.54
69239;BME280;56349;51.816;-0.026;2022-10-26T10:41:57;100407.79;;;22.85;40.62
69239;BME280;56349;51.816;-0.026;2022-10-26T10:44:26;100418.80;;;23.08;40.79
69239;BME280;56349;51.816;-0.026;2022-10-26T10:46:49;100421.93;;;22.87;40.94
69239;BME280;56349;51.816;-0.026;2022-10-26T10:49:19;100429.81;;;22.94;40.95
69239;BME280;56349;51.816;-0.026;2022-10-26T10:51:42;100438.22;;;22.80;40.90
69239;BME280;56349;51.816;-0.026;2022-10-26T10:54:17;100443.47;;;23.20;40.81
69239;BME280;56349;51.816;-0.026;2022-10-26T10:56:40;100456.04;;;23.08;40.69
69239;BME280;56349;51.816;-0.026;2022-10-26T11:01:30;100476.80;;;23.26;40.33
69239;BME280;56349;51.816;-0.026;2022-10-26T11:06:16;100468.59;;;23.49;39.81
69239;BME280;56349;51.816;-0.026;2022-10-26T11:08:47;100455.99;;;23.71;39.55
69239;BME280;56349;51.816;-0.026;2022-10-26T11:11:12;100456.25;;;23.94;39.26
69239;BME280;56349;51.816;-0.026;2022-10-26T11:13:37;100459.19;;;24.16;38.98
69239;BME280;56349;51.816;-0.026;2022-10-26T11:16:00;100472.94;;;24.35;38.73
69239;BME280;56349;51.816;-0.026;2022-10-26T11:18:33;100477.62;;;24.54;38.46
69239;BME280;56349;51.816;-0.026;2022-10-26T11:20:52;100476.36;;;24.45;38.21
69239;BME280;56349;51.816;-0.026;2022-10-26T11:23:22;100478.43;;;24.62;38.04
69239;BME280;56349;51.816;-0.026;2022-10-26T11:25:43;100477.58;;;24.54;37.87
69239;BME280;56349;51.816;-0.026;2022-10-26T11:28:11;100478.11;;;24.64;37.69
69239;BME280;56349;51.816;-0.026;2022-10-26T11:30:32;100482.21;;;25.23;37.53
69239;BME280;56349;51.816;-0.026;2022-10-26T11:33:03;100480.79;;;25.06;37.39
69239;BME280;56349;51.816;-0.026;2022-10-26T11:35:31;100486.42;;;24.94;37.23
69239;BME280;56349;51.816;-0.026;2022-10-26T11:37:57;100489.49;;;25.04;37.07
69239;BME280;56349;51.816;-0.026;2022-10-26T11:40:27;100500.36;;;25.13;36.91
69239;BME280;56349;51.816;-0.026;2022-10-26T11:42:42;100500.09;;;25.20;36.80
69239;BME280;56349;51.816;-0.026;2022-10-26T11:45:11;100499.03;;;25.28;36.66
69239;BME280;56349;51.816;-0.026;2022-10-26T11:47:36;100506.72;;;25.35;36.54
69239;BME280;56349;51.816;-0.026;2022-10-26T11:50:02;100506.22;;;25.38;36.45
69239;BME280;56349;51.816;-0.026;2022-10-26T11:52:26;100509.58;;;25.43;36.35
69239;BME280;56349;51.816;-0.026;2022-10-26T11:54:53;100507.72;;;25.47;36.26
69239;BME280;56349;51.816;-0.026;2022-10-26T11:57:14;100509.25;;;25.55;36.18
69239;BME280;56349;51.816;-0.026;2022-10-26T11:59:44;100508.78;;;25.55;36.16
69239;BME280;56349;51.816;-0.026;2022-10-26T12:02:11;100508.06;;;25.53;36.16
69239;BME280;56349;51.816;-0.026;2022-10-26T12:04:32;100508.90;;;25.51;35.97
69239;BME280;56349;51.816;-0.026;2022-10-26T12:06:57;100517.40;;;25.49;35.99
69239;BME280;56349;51.816;-0.026;2022-10-26T12:09:25;100523.80;;;25.51;35.95
69239;BME280;56349;51.816;-0.026;2022-10-26T12:11:49;100529.53;;;25.51;35.91
69239;BME280;56349;51.816;-0.026;2022-10-26T12:14:18;100533.06;;;25.48;35.92
69239;BME280;56349;51.816;-0.026;2022-10-26T12:16:45;100532.09;;;25.46;36.00
69239;BME280;56349;51.816;-0.026;2022-10-26T12:19:07;100535.87;;;25.46;36.03
69239;BME280;56349;51.816;-0.026;2022-10-26T12:21:30;100537.35;;;25.47;36.04
69239;BME280;56349;51.816;-0.026;2022-10-26T12:23:56;100543.94;;;25.48;35.99
69239;BME280;56349;51.816;-0.026;2022-10-26T12:28:46;100548.75;;;25.24;36.01
69239;BME280;56349;51.816;-0.026;2022-10-26T12:48:20;100569.77;;;25.43;35.64
69239;BME280;56349;51.816;-0.026;2022-10-26T12:50:38;100577.24;;;25.67;35.58
69239;BME280;56349;51.816;-0.026;2022-10-26T12:53:06;100578.38;;;25.17;35.56
69239;BME280;56349;51.816;-0.026;2022-10-26T12:58:05;100577.61;;;25.48;35.49
69239;BME280;56349;51.816;-0.026;2022-10-26T13:00:22;100582.50;;;25.49;35.47
69239;BME280;56349;51.816;-0.026;2022-10-26T13:02:54;100583.24;;;25.75;35.40